Time;durP1;ratioP1;P1;durP2;ratioP2;P2;SDS_P1;SDS_P2;PMS_P1;PMS_P2;Temp;Humidity;BMP_temperature;BMP_pressure;BME280_temperature;BME280_humidity;BME280_pressure;Samples;Min_cycle;Max_cycle;Signal;HPM_P1;HPM_P2
2022/03/04 00:00:45;;;;;;;34.50;19.43;;;3.20;99.90;;;;;;5048805;28;20722;-67
2022/03/04 00:03:12;;;;;;;31.93;18.40;;;3.30;99.90;;;;;;5045938;28;20271;-68
2022/03/04 00:05:39;;;;;;;29.37;17.90;;;3.30;99.90;;;;;;5048670;28;20248;-67
2022/03/04 00:08:07;;;;;;;31.00;19.13;;;3.30;99.90;;;;;;5045958;28;20753;-68
2022/03/04 00:10:34;;;;;;;30.53;19.27;;;3.40;99.90;;;;;;5050633;28;20206;-68
2022/03/04 00:13:01;;;;;;;33.63;18.40;;;3.30;99.90;;;;;;5048455;28;20201;-67
2022/03/04 00:15:30;;;;;;;32.20;18.73;;;3.30;99.90;;;;;;5046283;28;20220;-67
2022/03/04 00:17:57;;;;;;;36.50;19.43;;;3.30;99.90;;;;;;5057496;28;20293;-67
2022/03/04 00:20:25;;;;;;;31.03;19.40;;;3.30;99.90;;;;;;5054158;28;20247;-67
2022/03/04 00:22:51;;;;;;;31.77;18.50;;;3.30;99.90;;;;;;5051485;28;20265;-68
2022/03/04 00:25:19;;;;;;;31.63;19.30;;;3.30;99.90;;;;;;5049683;28;20293;-67
2022/03/04 00:27:46;;;;;;;28.90;18.23;;;3.30;99.90;;;;;;5051655;28;20244;-67
2022/03/04 00:30:13;;;;;;;27.83;17.47;;;3.30;99.90;;;;;;5051712;28;20224;-67
2022/03/04 00:32:42;;;;;;;28.07;17.50;;;3.30;99.90;;;;;;5041348;28;20485;-67
2022/03/04 00:35:09;;;;;;;28.77;18.23;;;3.30;99.90;;;;;;5054640;28;20198;-68
2022/03/04 00:37:36;;;;;;;28.43;18.40;;;3.30;99.90;;;;;;5049442;28;20242;-67
2022/03/04 00:40:05;;;;;;;32.70;17.53;;;3.20;99.90;;;;;;5051089;28;20237;-66
2022/03/04 00:42:32;;;;;;;30.50;17.83;;;3.30;99.90;;;;;;5048764;28;20257;-69
2022/03/04 00:44:58;;;;;;;29.97;18.00;;;3.30;99.90;;;;;;5045242;28;20281;-67
2022/03/04 00:47:27;;;;;;;31.13;17.47;;;3.30;99.90;;;;;;5041408;28;20256;-67
2022/03/04 00:49:55;;;;;;;32.47;18.37;;;3.30;99.90;;;;;;5045924;28;20213;-67
2022/03/04 00:52:22;;;;;;;26.40;17.37;;;3.20;99.90;;;;;;5050348;28;20206;-67
2022/03/04 00:54:49;;;;;;;33.13;17.10;;;3.20;99.90;;;;;;5047782;28;20205;-68
2022/03/04 00:57:16;;;;;;;30.53;17.30;;;3.30;99.90;;;;;;5046583;28;20293;-68
2022/03/04 00:59:43;;;;;;;26.87;17.23;;;3.20;99.90;;;;;;5048907;28;20244;-68
2022/03/04 01:02:10;;;;;;;28.27;16.27;;;3.20;99.90;;;;;;5046563;28;20229;-67
2022/03/04 01:04:37;;;;;;;29.43;17.70;;;3.20;99.90;;;;;;5049987;28;20225;-67
2022/03/04 01:07:05;;;;;;;24.23;16.60;;;3.20;99.90;;;;;;5046549;28;20214;-67
2022/03/04 01:09:32;;;;;;;24.73;16.23;;;3.10;99.90;;;;;;5048659;28;20202;-69
2022/03/04 01:11:59;;;;;;;30.50;16.60;;;3.10;99.90;;;;;;5051442;28;20289;-68
2022/03/04 01:14:26;;;;;;;29.10;17.03;;;3.20;99.90;;;;;;5051406;28;20248;-69
2022/03/04 01:16:53;;;;;;;30.33;16.77;;;3.20;99.90;;;;;;5052628;28;20564;-69
2022/03/04 01:19:20;;;;;;;27.30;15.83;;;3.20;99.90;;;;;;5055746;28;21074;-69
2022/03/04 01:21:47;;;;;;;26.70;16.33;;;3.20;99.90;;;;;;5050392;28;20261;-68
2022/03/04 01:24:15;;;;;;;26.47;16.43;;;3.30;99.90;;;;;;5052975;28;20206;-68
2022/03/04 01:26:42;;;;;;;25.07;15.93;;;3.20;99.90;;;;;;5044787;28;20752;-68
2022/03/04 01:29:09;;;;;;;27.63;16.13;;;3.30;99.90;;;;;;5059350;28;20205;-68
2022/03/04 01:31:36;;;;;;;29.10;17.53;;;3.30;99.90;;;;;;5054719;28;20289;-69
2022/03/04 01:34:03;;;;;;;29.03;17.00;;;3.30;99.90;;;;;;5049100;28;20206;-67
2022/03/04 01:36:33;;;;;;;27.83;16.80;;;3.20;99.90;;;;;;5048602;28;20298;-68
2022/03/04 01:39:00;;;;;;;28.10;17.60;;;3.30;99.90;;;;;;5050303;28;20400;-68
2022/03/04 01:41:28;;;;;;;26.70;16.37;;;3.30;99.90;;;;;;5054365;28;20225;-68
2022/03/04 01:43:55;;;;;;;27.87;16.23;;;3.30;99.90;;;;;;5049995;28;20249;-68
2022/03/04 01:46:29;;;;;;;29.30;16.67;;;3.30;99.90;;;;;;5050895;28;20285;-67
2022/03/04 01:48:56;;;;;;;26.93;16.17;;;3.30;99.90;;;;;;5044552;28;20202;-68
2022/03/04 01:51:23;;;;;;;26.23;16.80;;;3.40;99.90;;;;;;5045326;28;20297;-69
2022/03/04 01:53:49;;;;;;;30.17;16.47;;;3.30;99.90;;;;;;5053713;28;20203;-68
2022/03/04 01:56:16;;;;;;;27.03;16.50;;;3.40;99.90;;;;;;5066766;28;20292;-68
2022/03/04 01:58:45;;;;;;;24.33;15.87;;;3.40;99.90;;;;;;5054770;28;20218;-69
2022/03/04 02:01:12;;;;;;;29.07;16.83;;;3.40;99.90;;;;;;5055033;28;20220;-68
2022/03/04 02:03:39;;;;;;;29.27;17.67;;;3.40;99.90;;;;;;5052460;28;20226;-68
2022/03/04 02:06:06;;;;;;;29.47;16.93;;;3.40;99.90;;;;;;5051020;28;20302;-68
2022/03/04 02:08:32;;;;;;;26.83;17.23;;;3.40;99.90;;;;;;5052081;28;20297;-68
2022/03/04 02:10:59;;;;;;;27.37;17.43;;;3.50;99.90;;;;;;5060406;28;20293;-68
2022/03/04 02:13:26;;;;;;;27.33;16.97;;;3.50;99.90;;;;;;5053562;28;20285;-68
2022/03/04 02:15:54;;;;;;;29.33;17.23;;;3.50;99.90;;;;;;5051767;28;20206;-69
2022/03/04 02:18:21;;;;;;;29.43;17.00;;;3.50;99.90;;;;;;5053660;28;20289;-68
2022/03/04 02:20:50;;;;;;;28.50;17.07;;;3.50;99.90;;;;;;5053716;28;20862;-69
2022/03/04 02:23:19;;;;;;;28.67;17.63;;;3.50;99.90;;;;;;5044596;28;20234;-70
2022/03/04 02:25:48;;;;;;;30.57;18.53;;;3.40;99.90;;;;;;5047988;28;20301;-69
2022/03/04 02:28:15;;;;;;;27.43;16.60;;;3.40;99.90;;;;;;5053706;28;20245;-69
2022/03/04 02:30:42;;;;;;;29.53;17.23;;;3.40;99.90;;;;;;5058319;28;20216;-68
2022/03/04 02:33:09;;;;;;;29.77;17.43;;;3.30;99.90;;;;;;5060699;28;20647;-68
2022/03/04 02:35:37;;;;;;;28.17;17.03;;;3.30;99.90;;;;;;5049911;28;20293;-68
2022/03/04 02:38:04;;;;;;;25.40;16.00;;;3.30;99.90;;;;;;5053910;28;20264;-68
2022/03/04 02:40:33;;;;;;;27.67;17.17;;;3.30;99.90;;;;;;5053533;28;20198;-68
2022/03/04 02:43:00;;;;;;;28.77;17.43;;;3.30;99.90;;;;;;5044757;28;20313;-68
2022/03/04 02:45:27;;;;;;;28.37;16.90;;;3.30;99.90;;;;;;5049635;28;20679;-68
2022/03/04 02:47:54;;;;;;;28.00;17.10;;;3.30;99.90;;;;;;5053460;28;20321;-68
2022/03/04 02:50:21;;;;;;;30.57;17.03;;;3.40;99.90;;;;;;5046618;28;20305;-67
2022/03/04 02:52:48;;;;;;;29.33;17.40;;;3.40;99.90;;;;;;5048180;28;20198;-68
2022/03/04 02:55:15;;;;;;;31.37;17.93;;;3.30;99.90;;;;;;5050535;28;20217;-67
2022/03/04 02:57:45;;;;;;;30.07;17.30;;;3.30;99.90;;;;;;5051456;28;20636;-68
2022/03/04 03:00:14;;;;;;;32.53;18.30;;;3.30;99.90;;;;;;5054487;28;20237;-68
2022/03/04 03:02:41;;;;;;;30.03;18.23;;;3.40;99.90;;;;;;5049000;28;20876;-67
2022/03/04 03:05:09;;;;;;;31.97;17.00;;;3.40;99.90;;;;;;5050434;28;20639;-67
2022/03/04 03:07:36;;;;;;;31.63;17.83;;;3.40;99.90;;;;;;5048577;28;20260;-68
2022/03/04 03:10:04;;;;;;;30.57;16.77;;;3.40;99.90;;;;;;5068526;28;20214;-68
2022/03/04 03:12:31;;;;;;;32.43;16.77;;;3.40;99.90;;;;;;5057391;28;20209;-67
2022/03/04 03:14:59;;;;;;;30.13;17.97;;;3.40;99.90;;;;;;5053077;28;20293;-67
2022/03/04 03:17:26;;;;;;;29.20;17.67;;;3.40;99.90;;;;;;5051635;28;20230;-67
2022/03/04 03:19:53;;;;;;;28.53;17.47;;;3.30;99.90;;;;;;5038973;28;20627;-67
2022/03/04 03:22:20;;;;;;;28.30;17.20;;;3.30;99.90;;;;;;5035830;28;20222;-67
2022/03/04 03:24:47;;;;;;;30.63;17.17;;;3.40;99.90;;;;;;5045922;28;20234;-68
2022/03/04 03:27:14;;;;;;;27.93;17.23;;;3.40;99.90;;;;;;5052355;28;20233;-67
2022/03/04 03:29:42;;;;;;;30.70;17.93;;;3.40;99.90;;;;;;5057916;28;20206;-68
2022/03/04 03:32:11;;;;;;;32.07;17.13;;;3.40;99.90;;;;;;5054166;28;20671;-68
2022/03/04 03:34:38;;;;;;;25.07;15.73;;;3.50;99.90;;;;;;5060356;28;20206;-67
2022/03/04 03:37:05;;;;;;;28.87;17.00;;;3.50;99.90;;;;;;5050524;28;20240;-67
2022/03/04 03:39:32;;;;;;;27.97;17.63;;;3.50;99.90;;;;;;5053548;28;20202;-67
2022/03/04 03:41:59;;;;;;;25.73;16.50;;;3.60;99.90;;;;;;5048688;28;20293;-67
2022/03/04 03:44:26;;;;;;;28.53;16.17;;;3.60;99.90;;;;;;5050101;28;20327;-67
2022/03/04 03:46:53;;;;;;;27.07;16.60;;;3.60;99.90;;;;;;5051635;28;20237;-67
2022/03/04 03:49:22;;;;;;;29.90;16.37;;;3.70;99.90;;;;;;5057778;28;20197;-67
2022/03/04 03:51:49;;;;;;;33.00;16.90;;;3.70;99.90;;;;;;5043801;28;20582;-67
2022/03/04 03:54:16;;;;;;;24.60;14.70;;;3.70;99.90;;;;;;5049734;28;20222;-66
2022/03/04 03:56:43;;;;;;;26.90;15.07;;;3.60;99.90;;;;;;5051950;28;20684;-67
2022/03/04 03:59:10;;;;;;;26.97;15.43;;;3.70;99.90;;;;;;5053261;28;20289;-67
2022/03/04 04:01:38;;;;;;;18.80;13.13;;;3.70;99.90;;;;;;5043178;28;20237;-67
2022/03/04 04:04:07;;;;;;;22.77;14.87;;;3.70;99.90;;;;;;5050305;28;20399;-67
2022/03/04 04:06:35;;;;;;;26.73;14.10;;;3.70;99.90;;;;;;5047526;28;20515;-68
2022/03/04 04:09:02;;;;;;;21.90;14.37;;;3.70;99.90;;;;;;5063502;28;20300;-67
2022/03/04 04:11:30;;;;;;;24.17;13.27;;;3.70;99.90;;;;;;5050072;28;20205;-67
2022/03/04 04:13:57;;;;;;;21.83;13.73;;;3.60;99.90;;;;;;5052346;28;20574;-67
2022/03/04 04:16:24;;;;;;;18.90;13.07;;;3.70;99.90;;;;;;5051373;28;20312;-67
2022/03/04 04:18:51;;;;;;;20.63;12.57;;;3.70;99.90;;;;;;5051151;28;20701;-67
2022/03/04 04:21:18;;;;;;;21.47;11.90;;;3.70;99.90;;;;;;5047406;28;20325;-67
2022/03/04 04:23:47;;;;;;;19.03;12.03;;;3.70;99.90;;;;;;5051866;28;20226;-67
2022/03/04 04:26:14;;;;;;;23.10;11.87;;;3.70;99.90;;;;;;5051759;28;20249;-67
2022/03/04 04:28:41;;;;;;;21.37;10.40;;;3.70;99.90;;;;;;5051203;28;20206;-67
2022/03/04 04:31:08;;;;;;;21.07;12.03;;;3.70;99.90;;;;;;5047425;28;20206;-67
2022/03/04 04:33:35;;;;;;;17.87;12.10;;;3.60;99.90;;;;;;5058589;28;20232;-67
2022/03/04 04:36:02;;;;;;;19.53;10.70;;;3.70;99.90;;;;;;5050459;28;20202;-67
2022/03/04 04:38:29;;;;;;;16.53;10.97;;;3.60;99.90;;;;;;5042536;28;20236;-68
2022/03/04 04:40:57;;;;;;;18.87;10.50;;;3.60;99.90;;;;;;5053237;28;20213;-67
2022/03/04 04:43:24;;;;;;;18.80;11.20;;;3.60;99.90;;;;;;5044382;28;20261;-69
2022/03/04 04:45:53;;;;;;;19.83;10.57;;;3.60;99.90;;;;;;5051625;28;20216;-67
2022/03/04 04:48:20;;;;;;;19.47;12.47;;;3.60;99.90;;;;;;5049292;28;20240;-67
2022/03/04 04:50:46;;;;;;;17.97;10.80;;;3.60;99.90;;;;;;5053712;28;20284;-66
2022/03/04 04:53:13;;;;;;;19.77;11.90;;;3.60;99.90;;;;;;5051518;28;20663;-67
2022/03/04 04:55:40;;;;;;;17.20;10.67;;;3.60;99.90;;;;;;5056898;28;20201;-67
2022/03/04 04:58:08;;;;;;;17.80;10.50;;;3.60;99.90;;;;;;5051874;28;20214;-67
2022/03/04 05:00:35;;;;;;;17.70;9.77;;;3.60;99.90;;;;;;5050500;28;20209;-67
2022/03/04 05:03:02;;;;;;;19.70;11.90;;;3.60;99.90;;;;;;5046246;28;20248;-67
2022/03/04 05:05:29;;;;;;;17.63;10.37;;;3.70;99.90;;;;;;5053493;28;20209;-67
2022/03/04 05:07:56;;;;;;;16.03;10.20;;;3.70;99.90;;;;;;5049316;28;20210;-67
2022/03/04 05:10:23;;;;;;;20.60;11.07;;;3.70;99.90;;;;;;5054916;28;20760;-67
2022/03/04 05:12:49;;;;;;;17.90;11.13;;;3.70;99.90;;;;;;5054009;28;20256;-67
2022/03/04 05:15:18;;;;;;;18.00;11.13;;;3.70;99.90;;;;;;5051736;28;20216;-68
2022/03/04 05:17:45;;;;;;;14.60;10.10;;;3.80;99.90;;;;;;5045554;28;20211;-68
2022/03/04 05:20:12;;;;;;;18.83;10.60;;;3.80;99.90;;;;;;5052109;28;20302;-67
2022/03/04 05:22:39;;;;;;;17.67;10.70;;;3.70;99.90;;;;;;5040746;28;20314;-69
2022/03/04 05:25:07;;;;;;;21.53;10.83;;;3.80;99.90;;;;;;5050215;28;20213;-67
2022/03/04 05:27:34;;;;;;;16.37;10.30;;;3.80;99.90;;;;;;5054554;28;20216;-67
2022/03/04 05:30:01;;;;;;;13.13;9.37;;;3.80;99.90;;;;;;5059692;28;20285;-68
2022/03/04 05:32:29;;;;;;;15.87;10.07;;;3.80;99.90;;;;;;5046626;28;20225;-67
2022/03/04 05:34:56;;;;;;;18.23;10.93;;;3.80;99.90;;;;;;5046079;28;20297;-68
2022/03/04 05:37:23;;;;;;;15.57;10.00;;;3.70;99.90;;;;;;5039986;28;20277;-68
2022/03/04 05:39:52;;;;;;;16.33;9.47;;;3.70;99.90;;;;;;5045461;28;20329;-71
2022/03/04 05:42:19;;;;;;;18.30;10.27;;;3.80;99.90;;;;;;5054342;28;20224;-67
2022/03/04 05:44:46;;;;;;;18.13;9.90;;;3.70;99.90;;;;;;5046607;28;20364;-67
2022/03/04 05:47:13;;;;;;;16.30;9.37;;;3.70;99.90;;;;;;5049584;28;20355;-68
2022/03/04 05:49:41;;;;;;;12.27;8.77;;;3.70;99.90;;;;;;5054059;28;20728;-68
2022/03/04 05:52:08;;;;;;;17.63;9.80;;;3.60;99.90;;;;;;5052072;28;20210;-68
2022/03/04 05:54:35;;;;;;;16.80;9.90;;;3.60;99.90;;;;;;5052957;28;20234;-68
2022/03/04 05:57:02;;;;;;;14.20;9.13;;;3.60;99.90;;;;;;5053632;28;20202;-69
2022/03/04 05:59:29;;;;;;;14.70;9.13;;;3.60;99.90;;;;;;5052686;28;20213;-69
2022/03/04 06:01:56;;;;;;;17.40;8.90;;;3.60;99.90;;;;;;5043864;28;20205;-68
2022/03/04 06:04:23;;;;;;;14.67;9.27;;;3.60;99.90;;;;;;5053789;28;20599;-68
2022/03/04 06:06:52;;;;;;;20.13;9.73;;;3.60;99.90;;;;;;5058043;28;20284;-67
2022/03/04 06:09:19;;;;;;;18.97;10.67;;;3.60;99.90;;;;;;5064184;28;20390;-68
2022/03/04 06:11:46;;;;;;;15.10;10.03;;;3.60;99.90;;;;;;5057629;28;20569;-67
2022/03/04 06:14:13;;;;;;;16.47;8.63;;;3.70;99.90;;;;;;5042000;28;20238;-68
2022/03/04 06:16:40;;;;;;;13.57;9.13;;;3.70;99.90;;;;;;5051039;28;20715;-68
2022/03/04 06:19:08;;;;;;;16.03;9.27;;;3.70;99.90;;;;;;5053477;28;20209;-67
2022/03/04 06:21:35;;;;;;;16.30;9.40;;;3.70;99.90;;;;;;5066714;28;20233;-67
2022/03/04 06:24:04;;;;;;;17.43;10.03;;;3.70;99.90;;;;;;5049881;28;20257;-68
2022/03/04 06:26:32;;;;;;;14.50;9.57;;;3.80;99.90;;;;;;5049020;28;20255;-67
2022/03/04 06:28:59;;;;;;;15.87;10.37;;;3.80;99.90;;;;;;5055802;28;20695;-68
2022/03/04 06:31:26;;;;;;;15.97;9.67;;;3.80;99.90;;;;;;5053470;28;20209;-69
2022/03/04 06:33:53;;;;;;;13.80;9.03;;;3.80;99.90;;;;;;5054427;28;20210;-69
2022/03/04 06:36:19;;;;;;;15.40;9.40;;;3.80;99.90;;;;;;5062793;28;20293;-68
2022/03/04 06:38:47;;;;;;;15.17;8.93;;;3.80;99.90;;;;;;5049063;28;20259;-67
2022/03/04 06:41:15;;;;;;;13.60;9.67;;;3.80;99.90;;;;;;5053450;28;20296;-67
2022/03/04 06:43:43;;;;;;;15.37;9.87;;;3.80;99.90;;;;;;5059713;28;20345;-67
2022/03/04 06:46:10;;;;;;;18.23;9.63;;;3.80;99.90;;;;;;5064803;28;20214;-67
2022/03/04 06:48:37;;;;;;;14.93;9.37;;;3.80;99.90;;;;;;5062809;28;20300;-66
2022/03/04 06:51:05;;;;;;;15.07;9.77;;;3.80;99.90;;;;;;5055936;28;20206;-71
2022/03/04 06:53:32;;;;;;;14.77;10.17;;;3.90;99.90;;;;;;5059981;28;20236;-71
2022/03/04 06:55:59;;;;;;;15.13;10.20;;;3.90;99.90;;;;;;5056835;28;20245;-70
2022/03/04 06:58:28;;;;;;;20.63;10.53;;;3.90;99.90;;;;;;5055513;28;20283;-71
2022/03/04 07:00:55;;;;;;;20.87;11.47;;;3.90;99.90;;;;;;5058397;28;20313;-69
2022/03/04 07:03:23;;;;;;;18.03;11.57;;;4.00;99.90;;;;;;5056009;28;20248;-71
2022/03/04 07:05:50;;;;;;;15.07;10.77;;;4.00;99.90;;;;;;5058308;28;20221;-71
2022/03/04 07:08:17;;;;;;;21.73;11.10;;;4.00;99.90;;;;;;5053359;28;20652;-72
2022/03/04 07:10:44;;;;;;;17.43;11.17;;;4.00;99.90;;;;;;5055875;28;20233;-73
2022/03/04 07:13:12;;;;;;;16.30;10.70;;;4.00;99.90;;;;;;5053618;28;20293;-72
2022/03/04 07:15:41;;;;;;;17.93;11.90;;;4.00;99.90;;;;;;5057635;28;20249;-71
2022/03/04 07:18:08;;;;;;;18.80;11.27;;;4.00;99.90;;;;;;5052727;28;20281;-70
2022/03/04 07:20:35;;;;;;;16.33;11.23;;;4.00;99.90;;;;;;5053536;28;20710;-73
2022/03/04 07:23:03;;;;;;;14.73;9.53;;;4.00;99.90;;;;;;5057510;28;20205;-74
2022/03/04 07:25:30;;;;;;;19.93;11.10;;;3.90;99.90;;;;;;5055804;28;20229;-72
2022/03/04 07:27:57;;;;;;;16.57;10.80;;;3.90;99.90;;;;;;5053647;28;20305;-71
2022/03/04 07:30:24;;;;;;;14.20;10.27;;;4.00;99.90;;;;;;5058292;28;20202;-73
2022/03/04 07:32:53;;;;;;;21.33;10.70;;;3.90;99.90;;;;;;5056280;28;20289;-70
2022/03/04 07:35:19;;;;;;;17.37;10.57;;;3.90;99.90;;;;;;5060140;28;20194;-70
2022/03/04 07:37:46;;;;;;;18.43;11.07;;;3.90;99.90;;;;;;5054127;28;20645;-71
2022/03/04 07:40:15;;;;;;;15.90;9.83;;;3.90;99.90;;;;;;5060994;28;20256;-69
2022/03/04 07:42:43;;;;;;;16.57;10.93;;;3.90;99.90;;;;;;5051862;28;20206;-69
2022/03/04 07:45:11;;;;;;;15.40;10.53;;;3.90;99.90;;;;;;5053885;28;20332;-71
2022/03/04 07:47:39;;;;;;;17.10;10.13;;;3.90;99.90;;;;;;5045265;28;20296;-69
2022/03/04 07:50:10;;;;;;;17.53;10.40;;;3.80;99.90;;;;;;5048401;28;20260;-73
2022/03/04 07:52:37;;;;;;;14.17;9.73;;;3.80;99.90;;;;;;5056412;28;20705;-71
2022/03/04 07:55:07;;;;;;;15.00;10.53;;;3.80;99.90;;;;;;5054403;28;20608;-70
2022/03/04 07:57:34;;;;;;;15.67;10.33;;;3.80;99.90;;;;;;5050916;28;20252;-70
2022/03/04 08:00:02;;;;;;;19.17;10.30;;;3.90;99.90;;;;;;5050468;28;20244;-71
2022/03/04 08:02:29;;;;;;;17.97;10.63;;;3.80;99.90;;;;;;5050884;28;20221;-71
2022/03/04 08:04:56;;;;;;;14.57;9.73;;;3.90;99.90;;;;;;5053960;28;20224;-69
2022/03/04 08:07:24;;;;;;;14.10;8.70;;;3.90;99.90;;;;;;5060135;28;20278;-70
2022/03/04 08:09:51;;;;;;;12.50;8.53;;;3.90;99.90;;;;;;5054867;28;20287;-73
2022/03/04 08:12:18;;;;;;;13.53;8.53;;;3.90;99.90;;;;;;5052755;28;20482;-70
2022/03/04 08:14:45;;;;;;;10.77;7.70;;;4.00;99.90;;;;;;5053881;28;20269;-71
2022/03/04 08:17:12;;;;;;;11.77;7.73;;;3.90;99.90;;;;;;5062748;28;20238;-71
2022/03/04 08:19:39;;;;;;;12.97;7.37;;;3.90;99.90;;;;;;5053513;28;20572;-71
2022/03/04 08:22:06;;;;;;;15.87;8.30;;;3.90;99.90;;;;;;5048010;28;20698;-68
2022/03/04 08:24:35;;;;;;;11.03;8.33;;;3.90;99.90;;;;;;5062500;28;20221;-73
2022/03/04 08:27:03;;;;;;;12.90;8.17;;;3.90;99.90;;;;;;5060764;28;20208;-71
2022/03/04 08:29:30;;;;;;;12.73;7.97;;;3.90;99.90;;;;;;5056245;28;20221;-72
2022/03/04 08:31:57;;;;;;;13.00;7.90;;;3.80;99.90;;;;;;5053365;28;20259;-71
2022/03/04 08:34:24;;;;;;;11.03;7.53;;;3.80;99.90;;;;;;5054647;28;20215;-72
2022/03/04 08:36:51;;;;;;;11.90;8.37;;;3.80;99.90;;;;;;5053284;28;20269;-72
2022/03/04 08:39:18;;;;;;;10.57;7.90;;;3.80;99.90;;;;;;5052681;28;20237;-72
2022/03/04 08:41:47;;;;;;;10.20;7.23;;;3.80;99.90;;;;;;5054483;28;20271;-73
2022/03/04 08:44:14;;;;;;;10.70;7.07;;;3.80;99.90;;;;;;5058285;28;20234;-72
2022/03/04 08:46:41;;;;;;;13.73;8.13;;;3.90;99.90;;;;;;5054973;28;20209;-72
2022/03/04 08:49:09;;;;;;;12.37;7.30;;;3.90;99.90;;;;;;5052246;28;20563;-72
2022/03/04 08:51:36;;;;;;;11.47;7.57;;;4.00;99.90;;;;;;5056084;28;20268;-71
2022/03/04 08:54:05;;;;;;;11.73;7.07;;;3.90;99.90;;;;;;5064666;28;20201;-73
2022/03/04 08:56:32;;;;;;;12.40;7.83;;;3.90;99.90;;;;;;5049457;28;20218;-72
2022/03/04 08:59:01;;;;;;;8.87;6.93;;;3.90;99.90;;;;;;5054851;28;20628;-72
2022/03/04 09:01:28;;;;;;;10.77;7.67;;;3.90;99.90;;;;;;5048417;28;20245;-71
2022/03/04 09:03:55;;;;;;;15.50;7.93;;;3.90;99.90;;;;;;5052891;28;20986;-73
2022/03/04 09:06:22;;;;;;;11.40;7.50;;;4.00;99.90;;;;;;5054477;28;20212;-72
2022/03/04 09:08:49;;;;;;;11.77;7.87;;;4.10;99.90;;;;;;5056897;28;20218;-72
2022/03/04 09:11:16;;;;;;;10.67;7.20;;;4.10;99.90;;;;;;5054722;28;20209;-71
2022/03/04 09:13:43;;;;;;;10.77;7.47;;;4.10;99.90;;;;;;5054211;28;20253;-71
2022/03/04 09:16:11;;;;;;;14.87;8.10;;;4.10;99.90;;;;;;5051009;28;20210;-73
2022/03/04 09:18:38;;;;;;;11.23;6.97;;;4.20;99.90;;;;;;5045640;28;20294;-72
2022/03/04 09:21:05;;;;;;;11.50;7.50;;;4.20;99.90;;;;;;5046201;28;20226;-71
2022/03/04 09:23:32;;;;;;;11.17;7.57;;;4.30;99.90;;;;;;5045649;28;20301;-72
2022/03/04 09:25:59;;;;;;;12.43;7.00;;;4.20;99.90;;;;;;5048939;28;20226;-71
2022/03/04 09:28:26;;;;;;;9.80;6.87;;;4.20;99.90;;;;;;5055103;28;20252;-71
2022/03/04 09:30:53;;;;;;;11.87;7.67;;;4.10;99.90;;;;;;5052818;28;20214;-71
2022/03/04 09:33:21;;;;;;;11.60;7.30;;;4.10;99.90;;;;;;5049150;28;20238;-73
2022/03/04 09:35:48;;;;;;;11.97;8.27;;;4.10;99.90;;;;;;5046885;28;20230;-70
2022/03/04 09:38:15;;;;;;;11.80;8.07;;;4.20;99.90;;;;;;5049419;28;20198;-71
2022/03/04 09:40:43;;;;;;;10.87;7.40;;;4.20;99.90;;;;;;5045731;28;20569;-71
2022/03/04 09:43:10;;;;;;;11.00;7.30;;;4.20;99.90;;;;;;5048538;28;20586;-71
2022/03/04 09:45:37;;;;;;;9.80;7.47;;;4.20;99.90;;;;;;5042101;28;20302;-71
2022/03/04 09:48:05;;;;;;;11.27;7.40;;;4.20;99.90;;;;;;5049073;28;20214;-72
2022/03/04 09:50:34;;;;;;;11.37;7.57;;;4.20;99.90;;;;;;5046634;28;20631;-71
2022/03/04 09:53:04;;;;;;;12.00;7.57;;;4.20;99.90;;;;;;5048475;28;20214;-72
2022/03/04 09:55:32;;;;;;;11.03;7.63;;;4.20;99.90;;;;;;5047774;28;20285;-70
2022/03/04 09:57:59;;;;;;;9.13;7.13;;;4.10;99.90;;;;;;5052061;28;20206;-71
2022/03/04 10:00:26;;;;;;;10.23;7.20;;;4.10;99.90;;;;;;5050448;28;20280;-71
2022/03/04 10:02:54;;;;;;;10.47;7.30;;;4.00;99.90;;;;;;5048669;28;20210;-71
2022/03/04 10:05:21;;;;;;;11.07;7.73;;;4.00;99.90;;;;;;5050343;28;20290;-70
2022/03/04 10:07:50;;;;;;;11.70;8.50;;;4.00;99.90;;;;;;5055531;28;20209;-70
2022/03/04 10:10:21;;;;;;;15.53;8.80;;;4.00;99.90;;;;;;5055807;28;20252;-72
2022/03/04 10:12:50;;;;;;;11.93;8.03;;;4.00;99.90;;;;;;5051880;28;20214;-70
2022/03/04 10:15:18;;;;;;;11.33;7.53;;;4.00;99.90;;;;;;5057710;28;20194;-72
2022/03/04 10:17:58;;;;;;;13.43;8.27;;;4.00;99.90;;;;;;5056091;28;20214;-71
2022/03/04 10:20:33;;;;;;;9.00;6.70;;;4.00;99.90;;;;;;5050907;28;20287;-72
2022/03/04 10:23:17;;;;;;;11.50;7.43;;;3.90;99.90;;;;;;5055730;28;20678;-71
2022/03/04 10:25:47;;;;;;;11.77;7.30;;;3.90;99.90;;;;;;5051429;28;20214;-72
2022/03/04 10:28:15;;;;;;;13.20;7.70;;;3.90;99.90;;;;;;5051204;28;20721;-71
2022/03/04 10:30:47;;;;;;;11.20;7.43;;;4.00;99.90;;;;;;5046658;28;20205;-71
2022/03/04 10:33:16;;;;;;;11.93;7.07;;;4.00;99.90;;;;;;5046353;28;20255;-72
2022/03/04 10:35:44;;;;;;;11.67;7.07;;;4.00;99.90;;;;;;5050609;28;20813;-71
2022/03/04 10:38:24;;;;;;;9.97;7.03;;;4.10;99.90;;;;;;5055040;28;20248;-71
2022/03/04 10:40:52;;;;;;;11.53;8.13;;;4.10;99.90;;;;;;5048512;28;20221;-71
2022/03/04 10:43:30;;;;;;;11.30;8.00;;;4.20;99.90;;;;;;5049710;28;20617;-71
2022/03/04 10:46:02;;;;;;;9.60;6.80;;;4.20;99.90;;;;;;5052202;28;20647;-70
2022/03/04 10:48:30;;;;;;;10.07;7.27;;;4.20;99.90;;;;;;5056430;28;20285;-71
2022/03/04 10:50:59;;;;;;;11.80;7.53;;;4.30;99.90;;;;;;5057573;28;20237;-70
2022/03/04 10:53:29;;;;;;;8.77;6.87;;;4.30;99.90;;;;;;5052621;28;20635;-70
2022/03/04 10:55:57;;;;;;;10.17;6.93;;;4.30;99.90;;;;;;5052723;28;20672;-71
2022/03/04 10:58:27;;;;;;;8.30;6.30;;;4.30;99.90;;;;;;5053826;28;20210;-71
2022/03/04 11:00:55;;;;;;;10.03;6.47;;;4.20;99.90;;;;;;5055098;28;20593;-71
2022/03/04 11:03:25;;;;;;;9.20;6.53;;;4.20;99.90;;;;;;5054847;28;20606;-71
2022/03/04 11:05:53;;;;;;;10.73;6.83;;;4.30;99.90;;;;;;5051123;28;20884;-72
2022/03/04 11:08:21;;;;;;;8.30;6.57;;;4.30;99.90;;;;;;5048657;28;20233;-74
2022/03/04 11:10:51;;;;;;;13.90;6.50;;;4.40;99.90;;;;;;5047136;28;21726;-71
2022/03/04 11:13:18;;;;;;;8.73;6.90;;;4.60;99.90;;;;;;5051415;28;20217;-70
2022/03/04 11:15:47;;;;;;;9.90;6.60;;;4.70;99.90;;;;;;5044052;28;20236;-69
2022/03/04 11:18:16;;;;;;;10.07;6.00;;;4.90;99.90;;;;;;5040924;28;20498;-67
2022/03/04 11:20:45;;;;;;;10.33;6.60;;;5.00;99.90;;;;;;5044745;28;20325;-70
2022/03/04 11:23:18;;;;;;;9.50;6.57;;;5.20;99.90;;;;;;5049572;28;20210;-69
2022/03/04 11:25:51;;;;;;;8.97;6.03;;;5.30;99.90;;;;;;5058669;28;20218;-69
2022/03/04 11:28:21;;;;;;;10.50;6.83;;;5.50;99.90;;;;;;5055531;28;20202;-71
2022/03/04 11:30:51;;;;;;;8.63;6.23;;;5.60;99.90;;;;;;5051662;28;20206;-70
2022/03/04 11:33:20;;;;;;;8.23;6.10;;;5.80;99.90;;;;;;5041270;28;20212;-69
2022/03/04 11:35:59;;;;;;;11.23;6.27;;;5.80;99.90;;;;;;5038892;28;20194;-70
2022/03/04 11:39:07;;;;;;;11.43;6.43;;;5.90;99.90;;;;;;5041900;28;20233;-69
2022/03/04 11:42:07;;;;;;;9.20;6.77;;;6.00;99.90;;;;;;5044355;28;20209;-69
2022/03/04 11:44:55;;;;;;;9.70;7.07;;;6.20;99.90;;;;;;5050422;28;20244;-70
2022/03/04 11:47:22;;;;;;;10.07;6.13;;;6.30;99.90;;;;;;5046268;28;20230;-70
2022/03/04 11:49:49;;;;;;;8.67;6.60;;;6.50;99.90;;;;;;5043473;28;20292;-69
2022/03/04 11:52:36;;;;;;;8.13;6.27;;;6.70;99.90;;;;;;5042718;28;20201;-70
2022/03/04 11:55:20;;;;;;;9.30;6.87;;;7.10;99.90;;;;;;5043904;28;20213;-70
2022/03/04 11:57:48;;;;;;;10.33;7.27;;;7.40;99.90;;;;;;5042963;28;20279;-70
2022/03/04 12:00:44;;;;;;;9.53;6.90;;;7.60;99.90;;;;;;5042597;28;20238;-71
2022/03/04 12:03:17;;;;;;;11.73;7.43;;;7.70;99.90;;;;;;4997093;28;20666;-71
2022/03/04 12:05:52;;;;;;;9.43;6.93;;;7.80;99.90;;;;;;5041333;28;20212;-69
2022/03/04 12:08:19;;;;;;;8.77;6.47;;;7.80;99.90;;;;;;5041094;28;20209;-72
2022/03/04 12:10:50;;;;;;;8.70;6.00;;;7.60;99.90;;;;;;5045430;28;20695;-70
2022/03/04 12:13:19;;;;;;;11.13;7.57;;;7.40;99.90;;;;;;5051080;28;20233;-70
2022/03/04 12:15:53;;;;;;;10.77;7.50;;;7.20;99.90;;;;;;5047478;28;20216;-69
2022/03/04 12:18:27;;;;;;;11.57;7.37;;;6.90;99.90;;;;;;5045054;28;20575;-70
2022/03/04 12:21:03;;;;;;;8.10;6.37;;;6.70;99.90;;;;;;5049214;28;20310;-68
2022/03/04 12:23:33;;;;;;;10.43;7.70;;;6.60;99.90;;;;;;5053997;28;20198;-70
2022/03/04 12:26:07;;;;;;;9.90;6.53;;;6.50;99.90;;;;;;5055024;28;20230;-71
2022/03/04 12:28:36;;;;;;;8.77;7.10;;;6.50;99.90;;;;;;5056315;28;20205;-70
2022/03/04 12:31:24;;;;;;;8.83;6.23;;;7.10;99.90;;;;;;5051601;28;20679;-70
2022/03/04 12:33:55;;;;;;;9.33;5.47;;;11.30;99.90;;;;;;5049365;28;20210;-70
2022/03/04 12:36:24;;;;;;;6.57;5.37;;;15.60;99.90;;;;;;5060565;28;20212;-72
2022/03/04 12:38:53;;;;;;;6.87;5.10;;;16.90;82.10;;;;;;5050851;28;20242;-69
2022/03/04 12:41:21;;;;;;;7.03;5.30;;;16.20;70.20;;;;;;5042581;28;20214;-71
2022/03/04 12:43:51;;;;;;;7.20;4.93;;;15.10;66.20;;;;;;5051216;28;20309;-71
2022/03/04 12:46:22;;;;;;;7.07;5.00;;;14.00;66.70;;;;;;5036584;28;20341;-71
2022/03/04 12:48:51;;;;;;;8.10;5.87;;;13.10;68.00;;;;;;5056348;28;20732;-72